Time;durP1;ratioP1;P1;durP2;ratioP2;P2;SDS_P1;SDS_P2;PMS_P1;PMS_P2;Temp;Humidity;BMP_temperature;BMP_pressure;BME280_temperature;BME280_humidity;BME280_pressure;Samples;Min_cycle;Max_cycle;Signal;HPM_P1;HPM_P2
2023/11/22 00:01:11;;;;;;;7.53;5.97;;;;;;;8.39;73.28;96370.78;5026375;28;20700;-69
2023/11/22 00:03:36;;;;;;;9.10;6.87;;;;;;;8.60;72.48;96366.59;5026521;28;20195;-71
2023/11/22 00:06:02;;;;;;;7.50;6.03;;;;;;;8.96;71.22;96371.34;5026192;28;20925;-71
2023/11/22 00:08:29;;;;;;;13.57;5.63;;;;;;;8.78;72.00;96360.66;5026107;28;20195;-71
2023/11/22 00:10:54;;;;;;;8.23;7.00;;;;;;;8.84;71.93;96368.28;5026520;28;20343;-71
2023/11/22 00:13:20;;;;;;;7.20;5.73;;;;;;;8.87;72.16;96359.44;5026669;28;20513;-71
2023/11/22 00:15:45;;;;;;;10.60;6.50;;;;;;;8.97;71.31;96354.72;5026598;28;20175;-70
2023/11/22 00:18:10;;;;;;;12.97;6.57;;;;;;;9.01;71.57;96351.94;5026692;28;20171;-70
2023/11/22 00:20:36;;;;;;;13.80;7.60;;;;;;;8.95;71.77;96354.75;5026368;28;20182;-71
2023/11/22 00:23:03;;;;;;;11.27;6.93;;;;;;;8.94;71.38;96357.47;5026463;28;20209;-70
2023/11/22 00:25:28;;;;;;;7.87;5.80;;;;;;;8.97;71.30;96350.34;5025777;28;20514;-70
2023/11/22 00:27:55;;;;;;;10.37;6.50;;;;;;;8.88;71.85;96353.28;5026185;28;20457;-69
2023/11/22 00:30:20;;;;;;;6.67;5.67;;;;;;;9.05;71.50;96355.28;5026011;28;20172;-71
2023/11/22 00:32:46;;;;;;;6.90;6.20;;;;;;;9.10;71.12;96353.34;5030792;28;20430;-68
2023/11/22 00:35:12;;;;;;;6.93;5.97;;;;;;;9.07;71.42;96349.09;5046283;28;20270;-72
2023/11/22 00:37:37;;;;;;;9.67;6.47;;;;;;;9.01;71.29;96349.31;5049284;28;20178;-71
2023/11/22 00:40:10;;;;;;;9.77;6.07;;;;;;;8.84;72.78;96359.56;5049311;28;20413;-70
2023/11/22 00:42:39;;;;;;;7.60;5.77;;;;;;;8.78;72.16;96358.03;5049126;28;20569;-71
2023/11/22 00:45:06;;;;;;;8.17;5.90;;;;;;;8.89;72.30;96355.88;5049015;28;20530;-71
2023/11/22 00:47:34;;;;;;;7.97;6.30;;;;;;;8.91;72.07;96358.44;5049365;28;20488;-70
2023/11/22 00:50:00;;;;;;;7.70;6.73;;;;;;;8.97;71.95;96358.19;5049277;28;20480;-71
2023/11/22 00:52:25;;;;;;;7.83;6.57;;;;;;;8.57;73.30;96359.66;5049005;28;21195;-71
2023/11/22 00:54:50;;;;;;;7.37;6.27;;;;;;;8.44;75.03;96364.50;5049639;28;20187;-72
2023/11/22 00:57:16;;;;;;;10.10;7.17;;;;;;;8.59;73.72;96360.47;5050911;28;20170;-70
2023/11/22 00:59:42;;;;;;;8.50;6.53;;;;;;;8.69;73.17;96366.22;5049921;28;20178;-70
2023/11/22 01:02:08;;;;;;;13.20;7.20;;;;;;;8.93;72.53;96371.44;5049957;28;20493;-71
2023/11/22 01:04:36;;;;;;;6.97;5.70;;;;;;;8.91;73.04;96376.75;5049587;28;20201;-70
2023/11/22 01:07:04;;;;;;;10.43;6.93;;;;;;;8.97;72.82;96381.75;5049331;28;20981;-70
2023/11/22 01:09:30;;;;;;;8.37;5.93;;;;;;;8.98;72.86;96378.22;5049759;28;20479;-68
2023/11/22 01:11:55;;;;;;;6.27;5.67;;;;;;;8.98;72.69;96375.59;5049910;28;20432;-71
2023/11/22 01:14:21;;;;;;;8.03;6.30;;;;;;;8.90;73.15;96378.53;5049577;28;21094;-71
2023/11/22 01:16:47;;;;;;;9.50;5.67;;;;;;;8.92;72.93;96377.59;5051471;28;20171;-70
2023/11/22 01:19:12;;;;;;;6.60;5.70;;;;;;;8.94;73.24;96376.63;5053640;28;20253;-71
2023/11/22 01:21:38;;;;;;;6.97;6.27;;;;;;;8.90;73.12;96383.75;5052480;28;20183;-71
2023/11/22 01:24:04;;;;;;;7.60;6.37;;;;;;;8.83;72.94;96378.78;5052584;28;20179;-70
2023/11/22 01:26:30;;;;;;;5.50;5.00;;;;;;;8.77;74.01;96377.25;5051085;28;20175;-71
2023/11/22 01:28:55;;;;;;;10.97;6.50;;;;;;;8.91;73.19;96389.84;5051610;28;20210;-71
2023/11/22 01:31:21;;;;;;;8.93;6.20;;;;;;;8.78;73.67;96388.56;5050674;28;20772;-71
2023/11/22 01:33:47;;;;;;;9.83;6.40;;;;;;;8.87;73.13;96391.69;5036540;28;20202;-69
2023/11/22 01:36:15;;;;;;;7.30;5.57;;;;;;;8.94;73.26;96387.09;5029532;28;20414;-68
2023/11/22 01:38:40;;;;;;;8.90;5.70;;;;;;;8.82;73.53;96391.03;5029155;28;21087;-72
2023/11/22 01:41:06;;;;;;;6.13;5.50;;;;;;;8.74;73.64;96392.22;5028961;28;20410;-71
2023/11/22 01:43:31;;;;;;;8.57;6.33;;;;;;;8.78;74.18;96388.56;5028785;28;20211;-69
2023/11/22 01:45:56;;;;;;;9.73;6.07;;;;;;;8.83;74.32;96386.63;5030063;28;20179;-72
2023/11/22 01:48:23;;;;;;;7.70;6.00;;;;;;;8.48;74.82;96410.56;5029122;28;20223;-70
2023/11/22 01:50:48;;;;;;;6.10;4.90;;;;;;;7.44;76.98;96411.41;5029438;28;20167;-72
2023/11/22 01:53:16;;;;;;;4.90;4.17;;;;;;;7.19;77.83;96417.38;5028753;28;20446;-70
2023/11/22 01:55:42;;;;;;;5.40;4.27;;;;;;;7.01;78.93;96425.75;5029128;28;20198;-70
2023/11/22 01:58:08;;;;;;;6.17;4.53;;;;;;;7.02;79.19;96429.22;5029262;28;20406;-70
2023/11/22 02:00:48;;;;;;;6.20;4.80;;;;;;;7.15;78.06;96439.22;5028700;28;20483;-69
2023/11/22 02:03:13;;;;;;;4.37;3.60;;;;;;;7.15;76.77;96428.78;5028724;28;20187;-69
2023/11/22 02:05:42;;;;;;;6.27;3.30;;;;;;;7.30;75.78;96444.88;5028279;28;20410;-69
2023/11/22 02:08:09;;;;;;;4.90;3.23;;;;;;;7.27;74.07;96437.16;5027880;28;20198;-71
2023/11/22 02:10:36;;;;;;;3.67;2.90;;;;;;;6.84;75.61;96441.88;5029067;28;20410;-71
2023/11/22 02:13:04;;;;;;;4.60;2.73;;;;;;;6.53;76.15;96439.28;5028299;28;20460;-71
2023/11/22 02:15:30;;;;;;;3.77;2.63;;;;;;;6.79;74.60;96457.66;5027525;28;20432;-69
2023/11/22 02:17:56;;;;;;;3.47;2.73;;;;;;;6.62;75.87;96456.44;5028055;28;20429;-71
2023/11/22 02:20:22;;;;;;;2.40;2.20;;;;;;;6.84;74.73;96462.75;5027770;28;20175;-69
2023/11/22 02:22:48;;;;;;;3.10;2.80;;;;;;;6.69;74.57;96473.63;5027796;28;20434;-71
2023/11/22 02:25:15;;;;;;;5.10;2.80;;;;;;;6.43;75.83;96466.50;5027405;28;20176;-70
2023/11/22 02:27:40;;;;;;;4.03;2.83;;;;;;;6.23;76.64;96480.03;5027494;28;20210;-71
2023/11/22 02:30:06;;;;;;;3.57;2.33;;;;;;;6.59;75.83;96483.44;5027786;28;20414;-71
2023/11/22 02:32:33;;;;;;;2.57;2.07;;;;;;;6.67;75.64;96486.69;5031259;28;20203;-72
2023/11/22 02:34:59;;;;;;;8.43;2.40;;;;;;;6.54;75.34;96491.41;5047251;28;20170;-70
2023/11/22 02:37:25;;;;;;;4.30;2.60;;;;;;;6.48;76.02;96478.50;5047448;28;20420;-70
2023/11/22 02:40:20;;;;;;;3.80;2.10;;;;;;;6.87;75.17;96488.75;5047475;28;20892;-70
2023/11/22 02:42:47;;;;;;;4.17;2.60;;;;;;;6.81;74.98;96491.53;5048860;28;20209;-72
2023/11/22 02:45:13;;;;;;;3.03;2.43;;;;;;;6.95;74.53;96483.34;5047073;28;20417;-68
2023/11/22 02:47:39;;;;;;;3.13;2.60;;;;;;;6.93;74.28;96488.59;5047306;28;21303;-69
2023/11/22 02:50:05;;;;;;;4.00;2.67;;;;;;;6.72;76.19;96499.59;5047057;28;20409;-70
2023/11/22 02:52:32;;;;;;;3.07;2.77;;;;;;;6.56;76.56;96501.75;5047418;28;20619;-71
2023/11/22 02:54:57;;;;;;;3.20;2.50;;;;;;;6.41;77.55;96495.22;5047174;28;20428;-67
2023/11/22 02:57:23;;;;;;;5.43;2.70;;;;;;;6.28;77.58;96505.09;5047388;28;20409;-69
2023/11/22 02:59:48;;;;;;;3.77;2.67;;;;;;;6.43;77.55;96501.25;5046588;28;20779;-71
2023/11/22 03:02:16;;;;;;;5.20;3.07;;;;;;;6.74;77.00;96503.88;5047301;28;20202;-72
2023/11/22 03:04:41;;;;;;;3.30;2.47;;;;;;;6.67;75.33;96511.91;5046830;28;20174;-71
2023/11/22 03:07:07;;;;;;;1.93;1.50;;;;;;;7.03;74.32;96506.59;5046661;28;20827;-69
2023/11/22 03:09:32;;;;;;;4.90;1.77;;;;;;;7.05;73.60;96513.47;5046640;28;20194;-70
2023/11/22 03:11:58;;;;;;;1.73;1.43;;;;;;;7.06;73.03;96509.09;5046916;28;20854;-70
2023/11/22 03:14:23;;;;;;;2.27;1.67;;;;;;;6.97;73.89;96508.47;5046964;28;21014;-69
2023/11/22 03:16:50;;;;;;;2.47;1.80;;;;;;;7.04;73.05;96510.91;5048194;28;20262;-72
2023/11/22 03:19:15;;;;;;;2.50;1.90;;;;;;;6.66;73.07;96510.19;5049818;28;20189;-69
2023/11/22 03:21:41;;;;;;;2.53;1.67;;;;;;;6.84;72.27;96516.69;5049593;28;20885;-71
2023/11/22 03:24:10;;;;;;;1.80;1.60;;;;;;;6.66;73.97;96518.00;5050597;28;20171;-69
2023/11/22 03:26:36;;;;;;;2.23;1.60;;;;;;;6.73;74.14;96524.78;5053761;28;20556;-71
2023/11/22 03:29:01;;;;;;;2.20;1.70;;;;;;;6.42;74.66;96533.41;5056929;28;20500;-71
2023/11/22 03:31:27;;;;;;;2.77;2.00;;;;;;;6.03;76.42;96537.84;5059345;28;20197;-72
2023/11/22 03:33:54;;;;;;;3.00;1.60;;;;;;;5.86;76.80;96535.63;5047806;28;20191;-70
2023/11/22 03:36:20;;;;;;;2.00;1.80;;;;;;;6.06;75.57;96530.81;5041963;28;20501;-70
2023/11/22 03:38:46;;;;;;;2.70;2.03;;;;;;;5.99;75.28;96536.22;5036317;28;20937;-71
2023/11/22 03:41:11;;;;;;;4.33;2.50;;;;;;;6.04;76.09;96540.41;5031125;28;20183;-72
2023/11/22 03:43:37;;;;;;;3.00;2.43;;;;;;;6.22;75.53;96543.47;5030891;28;20207;-71
2023/11/22 03:46:02;;;;;;;2.80;2.13;;;;;;;6.19;75.43;96547.03;5029542;28;20178;-70
2023/11/22 03:48:28;;;;;;;3.77;2.43;;;;;;;6.17;75.39;96550.56;5026675;28;20285;-70
2023/11/22 03:50:53;;;;;;;8.63;2.70;;;;;;;6.11;75.53;96544.56;5026606;28;20179;-72
2023/11/22 03:53:21;;;;;;;3.97;3.30;;;;;;;5.80;75.92;96546.16;5026638;28;20741;-69
2023/11/22 03:55:47;;;;;;;5.53;3.47;;;;;;;5.89;76.18;96546.81;5026257;28;20531;-70
2023/11/22 03:58:13;;;;;;;5.40;3.50;;;;;;;5.77;75.98;96572.28;5026650;28;20490;-69
2023/11/22 04:00:38;;;;;;;3.90;3.20;;;;;;;5.62;76.27;96570.84;5026303;28;20505;-72
2023/11/22 04:03:04;;;;;;;4.87;3.83;;;;;;;5.04;78.19;96584.16;5025288;28;20294;-71
2023/11/22 04:05:29;;;;;;;6.60;4.30;;;;;;;5.21;78.04;96588.19;5026286;28;20171;-71
2023/11/22 04:07:56;;;;;;;5.00;3.93;;;;;;;5.00;78.22;96592.91;5026699;28;20200;-70
2023/11/22 04:10:21;;;;;;;4.17;3.77;;;;;;;4.88;79.42;96595.75;5027273;28;20198;-71
2023/11/22 04:12:47;;;;;;;5.27;3.80;;;;;;;5.19;78.38;96596.00;5030893;28;20929;-71
2023/11/22 04:15:13;;;;;;;4.20;3.53;;;;;;;5.53;77.76;96595.34;5029559;28;20183;-71
2023/11/22 04:17:42;;;;;;;4.57;3.90;;;;;;;5.77;76.16;96598.31;5030257;28;20164;-69
2023/11/22 04:20:10;;;;;;;4.30;3.57;;;;;;;5.94;75.16;96602.28;5030370;28;20507;-70
2023/11/22 04:22:38;;;;;;;5.00;3.27;;;;;;;5.89;76.02;96611.06;5030421;28;20458;-72
2023/11/22 04:25:04;;;;;;;4.03;3.30;;;;;;;6.25;74.49;96611.16;5029823;28;20410;-71
2023/11/22 04:27:29;;;;;;;11.53;3.70;;;;;;;6.06;75.06;96608.13;5030545;28;20825;-70
2023/11/22 04:29:55;;;;;;;5.80;3.27;;;;;;;6.13;74.25;96614.91;5030379;28;20402;-70
2023/11/22 04:32:22;;;;;;;7.93;3.60;;;;;;;5.99;73.57;96625.63;5031369;28;20187;-70
2023/11/22 04:34:47;;;;;;;4.03;3.50;;;;;;;6.08;72.96;96622.81;5050473;28;20682;-69
2023/11/22 04:37:13;;;;;;;4.13;3.33;;;;;;;6.14;72.11;96627.91;5049935;28;20402;-71
2023/11/22 04:39:38;;;;;;;4.57;2.90;;;;;;;6.11;71.79;96635.78;5050068;28;21068;-70
2023/11/22 04:42:04;;;;;;;4.13;3.33;;;;;;;6.11;71.94;96653.16;5049830;28;20599;-71
2023/11/22 04:44:29;;;;;;;4.93;3.53;;;;;;;6.20;71.78;96665.13;5049911;28;20190;-69
2023/11/22 04:46:55;;;;;;;5.20;4.23;;;;;;;6.00;71.79;96660.34;5049280;28;20166;-69
2023/11/22 04:49:20;;;;;;;5.43;4.70;;;;;;;5.83;72.63;96663.28;5050145;28;20245;-70
2023/11/22 04:51:45;;;;;;;4.97;4.47;;;;;;;6.08;70.83;96663.66;5047980;28;20274;-71
2023/11/22 04:54:11;;;;;;;4.40;4.00;;;;;;;5.68;72.49;96660.09;5049095;28;20183;-70
2023/11/22 04:56:37;;;;;;;5.40;4.40;;;;;;;5.71;73.13;96673.06;5049629;28;20199;-72
2023/11/22 04:59:03;;;;;;;6.80;5.77;;;;;;;5.63;72.96;96667.16;5049542;28;20178;-70
2023/11/22 05:01:35;;;;;;;6.90;5.50;;;;;;;5.76;71.53;96670.34;5050114;28;20600;-69
2023/11/22 05:04:00;;;;;;;6.20;5.07;;;;;;;5.89;71.25;96687.44;5049446;28;20436;-71
2023/11/22 05:06:27;;;;;;;6.00;5.10;;;;;;;6.06;70.27;96687.13;5052523;28;20417;-70
2023/11/22 05:08:52;;;;;;;7.77;5.13;;;;;;;5.84;70.88;96691.06;5059635;28;20261;-72
2023/11/22 05:11:18;;;;;;;8.13;5.83;;;;;;;5.82;70.67;96690.22;5063128;28;20413;-71
2023/11/22 05:13:43;;;;;;;7.70;5.80;;;;;;;5.82;70.19;96688.47;5063118;28;20194;-70
2023/11/22 05:16:09;;;;;;;6.03;5.30;;;;;;;5.64;71.53;96684.47;5057046;28;20151;-71
2023/11/22 05:18:35;;;;;;;10.97;6.33;;;;;;;5.94;70.61;96700.41;5014085;28;20179;-70
2023/11/22 05:21:03;;;;;;;7.47;6.10;;;;;;;5.86;69.70;96704.91;5046405;28;20213;-71
2023/11/22 05:23:28;;;;;;;6.50;5.83;;;;;;;5.35;70.65;96707.63;5048217;28;20433;-69
2023/11/22 05:25:53;;;;;;;8.70;6.13;;;;;;;5.17;72.01;96720.06;5048308;28;20409;-69
2023/11/22 05:28:19;;;;;;;7.77;5.63;;;;;;;5.35;70.92;96715.44;5046643;28;20195;-70
2023/11/22 05:30:44;;;;;;;6.20;5.57;;;;;;;5.11;71.15;96730.59;5046578;28;20254;-69
2023/11/22 05:33:10;;;;;;;8.03;6.60;;;;;;;5.05;71.20;96726.31;5038051;28;20264;-68
2023/11/22 05:35:35;;;;;;;8.27;6.17;;;;;;;5.02;71.09;96725.53;5026985;28;20251;-72
2023/11/22 05:38:01;;;;;;;7.70;6.30;;;;;;;5.20;70.24;96735.63;5026941;28;20164;-71
2023/11/22 05:40:27;;;;;;;7.30;5.63;;;;;;;5.11;69.63;96725.38;5027239;28;20235;-71
2023/11/22 05:42:52;;;;;;;8.10;6.13;;;;;;;4.89;69.77;96722.28;5027309;28;20526;-68
2023/11/22 05:45:18;;;;;;;7.60;5.80;;;;;;;4.56;70.84;96731.44;5028236;28;20233;-70
2023/11/22 05:47:43;;;;;;;7.40;6.03;;;;;;;4.95;70.18;96721.31;5027686;28;21035;-71
2023/11/22 05:50:09;;;;;;;6.60;5.77;;;;;;;4.41;70.53;96738.59;5025602;28;20171;-69
2023/11/22 05:52:34;;;;;;;8.20;6.30;;;;;;;4.93;69.96;96736.94;5026324;28;20206;-67
2023/11/22 05:55:03;;;;;;;12.27;7.83;;;;;;;4.98;69.86;96734.25;5025968;28;20881;-70
2023/11/22 05:57:30;;;;;;;8.10;6.10;;;;;;;4.96;69.89;96739.50;5026094;28;20191;-69
2023/11/22 05:59:55;;;;;;;8.43;5.40;;;;;;;5.14;69.13;96729.69;5029627;28;20429;-72
2023/11/22 06:02:21;;;;;;;8.70;6.20;;;;;;;4.93;69.28;96736.09;5035093;28;20819;-68
2023/11/22 06:04:46;;;;;;;8.23;6.40;;;;;;;4.62;70.84;96742.63;5037661;28;20179;-68
2023/11/22 06:07:11;;;;;;;8.33;6.27;;;;;;;5.12;69.17;96739.25;5030973;28;20258;-71
2023/11/22 06:09:37;;;;;;;8.00;5.87;;;;;;;5.02;68.63;96736.78;5036389;28;20256;-68
2023/11/22 06:12:02;;;;;;;8.37;5.33;;;;;;;5.05;68.06;96735.88;5040682;28;20199;-70
2023/11/22 06:14:28;;;;;;;6.77;4.80;;;;;;;4.79;69.09;96739.75;5045718;28;20202;-71
2023/11/22 06:16:53;;;;;;;13.70;6.33;;;;;;;5.12;67.67;96732.28;5037396;28;20183;-69
2023/11/22 06:19:19;;;;;;;9.80;5.60;;;;;;;5.07;67.32;96740.16;5045354;28;20175;-69
2023/11/22 06:21:45;;;;;;;7.90;6.27;;;;;;;4.88;67.95;96754.38;5045019;28;20421;-69
2023/11/22 06:24:15;;;;;;;9.07;5.73;;;;;;;4.78;68.00;96764.06;5025433;28;20178;-71
2023/11/22 06:26:41;;;;;;;8.20;5.80;;;;;;;4.63;68.03;96770.34;5028960;28;20615;-72
2023/11/22 06:29:08;;;;;;;5.73;4.80;;;;;;;4.74;68.03;96772.78;5040025;28;20464;-72
2023/11/22 06:31:33;;;;;;;7.27;5.40;;;;;;;4.49;67.73;96794.78;5041657;28;20448;-68
2023/11/22 06:34:01;;;;;;;6.90;5.53;;;;;;;4.72;67.54;96803.13;5037981;28;20448;-70
2023/11/22 06:36:27;;;;;;;11.37;5.30;;;;;;;4.92;67.92;96808.06;5035193;28;20661;-72
2023/11/22 06:38:54;;;;;;;7.00;5.30;;;;;;;5.01;67.61;96809.66;5033343;28;20576;-69
2023/11/22 06:41:21;;;;;;;7.57;6.07;;;;;;;5.26;66.81;96810.13;5042636;28;20938;-67
2023/11/22 06:43:47;;;;;;;7.77;5.70;;;;;;;5.07;66.68;96818.22;5035005;28;20444;-69
2023/11/22 06:46:12;;;;;;;9.87;5.77;;;;;;;5.03;66.91;96826.06;5038698;28;20443;-70
2023/11/22 06:48:38;;;;;;;7.17;5.33;;;;;;;5.20;66.01;96831.91;5040423;28;20230;-69
2023/11/22 06:51:03;;;;;;;8.23;5.73;;;;;;;5.28;65.63;96840.44;5042747;28;20645;-70
2023/11/22 06:53:28;;;;;;;7.40;5.40;;;;;;;5.18;64.29;96833.66;5031290;28;20209;-71
2023/11/22 06:55:54;;;;;;;5.83;4.60;;;;;;;5.36;64.02;96844.66;5030641;28;20176;-67
2023/11/22 06:58:19;;;;;;;10.17;5.93;;;;;;;5.08;63.79;96847.69;5027362;28;20667;-69
2023/11/22 07:00:45;;;;;;;7.40;4.20;;;;;;;5.12;63.58;96845.91;5041476;28;20282;-70
2023/11/22 07:03:10;;;;;;;5.90;4.23;;;;;;;5.09;62.62;96850.25;5031200;28;20210;-71
2023/11/22 07:05:36;;;;;;;6.93;4.63;;;;;;;5.12;62.57;96853.69;5040564;28;20194;-73
2023/11/22 07:08:03;;;;;;;4.77;4.27;;;;;;;4.71;62.62;96858.63;5036733;28;20298;-73
2023/11/22 07:10:28;;;;;;;4.53;4.10;;;;;;;5.03;62.76;96854.69;5030027;28;20179;-73
2023/11/22 07:12:54;;;;;;;5.97;3.77;;;;;;;5.08;61.64;96855.50;5035754;28;20446;-68
2023/11/22 07:15:19;;;;;;;4.03;3.63;;;;;;;5.05;62.35;96865.94;5044385;28;20958;-71
2023/11/22 07:17:45;;;;;;;7.73;3.60;;;;;;;4.80;62.58;96863.69;5033171;28;20176;-71
2023/11/22 07:20:17;;;;;;;5.80;4.40;;;;;;;4.72;63.24;96862.06;5024756;28;20245;-70
2023/11/22 07:22:43;;;;;;;3.57;3.27;;;;;;;4.70;62.90;96861.22;5040305;28;20207;-70
2023/11/22 07:25:17;;;;;;;5.50;3.37;;;;;;;4.63;63.01;96873.44;5035212;28;20436;-70
2023/11/22 07:27:45;;;;;;;5.00;3.37;;;;;;;4.52;62.86;96873.59;5041300;28;20439;-71
2023/11/22 07:30:12;;;;;;;5.20;3.63;;;;;;;4.67;61.97;96870.78;5038433;28;20463;-73
2023/11/22 07:32:39;;;;;;;8.10;3.50;;;;;;;4.60;62.34;96883.88;5041958;28;20434;-70
2023/11/22 07:35:06;;;;;;;4.60;2.90;;;;;;;4.51;62.68;96889.19;5027615;28;20429;-71
2023/11/22 07:37:32;;;;;;;4.07;3.67;;;;;;;4.56;63.39;96893.47;5042164;28;20835;-72
2023/11/22 07:39:57;;;;;;;3.87;2.60;;;;;;;4.87;62.65;96895.69;5036366;28;20441;-70
2023/11/22 07:42:22;;;;;;;3.80;2.60;;;;;;;4.77;61.48;96901.88;5040087;28;20195;-73
2023/11/22 07:44:49;;;;;;;5.00;3.87;;;;;;;4.84;61.85;96900.91;5031150;28;20179;-70
2023/11/22 07:47:15;;;;;;;3.20;2.60;;;;;;;4.95;60.16;96905.97;5048973;28;20182;-72
2023/11/22 07:49:41;;;;;;;5.17;3.10;;;;;;;5.10;60.39;96905.75;5049399;28;20464;-73
2023/11/22 07:52:07;;;;;;;3.30;2.63;;;;;;;5.05;60.41;96904.94;5053302;28;20441;-70
2023/11/22 07:54:32;;;;;;;3.83;3.07;;;;;;;5.26;60.21;96909.84;5050889;28;20414;-73
2023/11/22 07:56:58;;;;;;;4.37;2.87;;;;;;;5.22;59.94;96916.00;5039276;28;20183;-71
2023/11/22 07:59:23;;;;;;;3.17;2.80;;;;;;;4.87;59.56;96914.75;5052852;28;20163;-72
2023/11/22 08:01:49;;;;;;;4.20;2.43;;;;;;;5.08;60.31;96907.53;5052276;28;20178;-70
2023/11/22 08:04:16;;;;;;;8.57;2.87;;;;;;;5.02;59.43;96918.00;5045656;28;20622;-70
2023/11/22 08:06:42;;;;;;;2.97;2.67;;;;;;;5.04;59.93;96922.31;5053195;28;20182;-70
2023/11/22 08:09:09;;;;;;;7.33;2.83;;;;;;;5.01;60.47;96926.72;5050201;28;20464;-72
2023/11/22 08:11:35;;;;;;;2.97;2.47;;;;;;;4.62;60.38;96923.72;5046196;28;20210;-70
2023/11/22 08:14:01;;;;;;;13.77;3.80;;;;;;;4.99;60.35;96918.06;5043765;28;20529;-72
2023/11/22 08:16:26;;;;;;;3.17;2.80;;;;;;;5.08;60.09;96930.94;5054096;28;20480;-71
2023/11/22 08:18:52;;;;;;;3.73;3.00;;;;;;;4.99;60.91;96939.72;5051962;28;20175;-71
2023/11/22 08:21:18;;;;;;;12.50;3.60;;;;;;;5.01;59.67;96937.97;5047155;28;20293;-70
2023/11/22 08:23:45;;;;;;;8.13;3.50;;;;;;;4.90;60.50;96949.38;5034003;28;20195;-72
2023/11/22 08:26:11;;;;;;;8.40;3.30;;;;;;;5.00;60.12;96953.59;5045414;28;20228;-69
2023/11/22 08:28:37;;;;;;;3.40;2.93;;;;;;;4.98;60.31;96950.13;5053911;28;20465;-71
2023/11/22 08:31:04;;;;;;;5.53;3.17;;;;;;;4.90;60.78;96959.78;5054982;28;20466;-71
2023/11/22 08:33:29;;;;;;;2.97;2.57;;;;;;;4.87;60.57;96965.91;5038797;28;20901;-71
2023/11/22 08:35:59;;;;;;;8.13;3.37;;;;;;;4.85;60.89;96968.50;5043271;28;20467;-70
2023/11/22 08:38:26;;;;;;;8.73;3.13;;;;;;;4.91;61.06;96971.91;5044459;28;20179;-71
2023/11/22 08:40:52;;;;;;;8.87;3.43;;;;;;;4.73;60.75;96979.06;5042193;28;20494;-72
2023/11/22 08:43:22;;;;;;;5.50;4.27;;;;;;;4.67;61.03;96976.50;5043010;28;20507;-71
2023/11/22 08:45:48;;;;;;;8.97;4.80;;;;;;;4.97;60.25;96977.03;5049230;28;20449;-73
2023/11/22 08:48:15;;;;;;;3.60;3.30;;;;;;;4.76;60.18;96978.16;5041929;28;20484;-73
2023/11/22 08:50:40;;;;;;;4.83;3.43;;;;;;;4.62;61.21;96981.75;5039585;28;20267;-72
2023/11/22 08:53:06;;;;;;;5.33;3.47;;;;;;;4.45;61.70;96986.28;5044429;28;20540;-72
2023/11/22 08:55:33;;;;;;;5.70;3.57;;;;;;;4.59;61.67;96981.81;5041914;28;20714;-70
2023/11/22 08:57:59;;;;;;;4.23;3.77;;;;;;;4.24;63.23;96987.38;5034774;28;20654;-69
2023/11/22 09:00:27;;;;;;;4.47;4.07;;;;;;;3.82;64.55;96994.63;5038756;28;20459;-70
2023/11/22 09:02:54;;;;;;;4.47;4.03;;;;;;;4.02;63.91;97004.88;5038949;28;20218;-71
2023/11/22 09:05:21;;;;;;;5.93;4.40;;;;;;;4.06;62.94;97000.50;5037456;28;20426;-69
2023/11/22 09:07:47;;;;;;;4.63;3.80;;;;;;;3.59;64.15;96994.81;5035078;28;20430;-71
2023/11/22 09:10:13;;;;;;;4.93;4.50;;;;;;;3.10;65.29;96989.94;5032046;28;20437;-70
2023/11/22 09:12:41;;;;;;;4.67;3.73;;;;;;;2.96;65.92;96990.00;5033589;28;20471;-71
2023/11/22 09:15:24;;;;;;;5.40;4.40;;;;;;;3.25;65.97;96979.47;5032455;28;20940;-71
2023/11/22 09:17:50;;;;;;;5.70;5.07;;;;;;;3.49;65.37;96986.22;5043203;28;20521;-71
2023/11/22 09:20:16;;;;;;;6.90;5.10;;;;;;;3.75;64.48;96990.38;5038150;28;20448;-67
2023/11/22 09:22:49;;;;;;;6.87;4.03;;;;;;;3.58;65.59;96995.69;5032418;28;20453;-68
2023/11/22 09:25:19;;;;;;;10.33;5.10;;;;;;;4.24;63.41;96998.59;5041454;28;20442;-70
2023/11/22 09:27:47;;;;;;;7.53;4.50;;;;;;;4.16;63.51;96997.84;5033888;28;20457;-68
2023/11/22 09:30:19;;;;;;;6.70;4.70;;;;;;;4.39;63.21;97002.81;5040584;28;21209;-70
2023/11/22 09:32:48;;;;;;;5.53;4.30;;;;;;;4.32;62.56;96998.53;5039221;28;21168;-71
2023/11/22 09:35:15;;;;;;;6.37;4.83;;;;;;;4.25;62.58;96996.88;5040705;28;20776;-72
2023/11/22 09:37:44;;;;;;;6.37;4.80;;;;;;;4.21;63.14;97000.38;5039615;28;20464;-68
2023/11/22 09:40:11;;;;;;;8.30;4.20;;;;;;;4.37;61.99;97004.56;5039385;28;20433;-69
2023/11/22 09:42:36;;;;;;;6.40;3.90;;;;;;;4.54;60.53;97012.19;5040959;28;20460;-70
2023/11/22 09:45:03;;;;;;;3.53;3.23;;;;;;;4.03;62.44;97006.59;5047099;28;20429;-71
2023/11/22 09:47:32;;;;;;;5.73;4.17;;;;;;;4.34;61.35;96998.53;5034267;28;20188;-68
2023/11/22 09:50:00;;;;;;;4.80;4.23;;;;;;;4.14;61.76;97006.50;5041889;28;21128;-68
2023/11/22 09:52:28;;;;;;;5.07;3.80;;;;;;;4.00;62.80;97002.28;5041322;28;20458;-67
2023/11/22 09:54:55;;;;;;;6.53;4.40;;;;;;;4.47;61.65;96996.69;5042436;28;20445;-72
2023/11/22 09:57:24;;;;;;;6.73;4.93;;;;;;;4.20;61.84;97020.28;5042551;28;20948;-72
2023/11/22 09:59:52;;;;;;;8.00;5.07;;;;;;;4.34;61.74;97012.38;5034336;28;20422;-70
2023/11/22 10:02:18;;;;;;;8.43;4.90;;;;;;;4.31;61.35;97024.53;5047300;28;20484;-71
2023/11/22 10:04:43;;;;;;;7.10;4.17;;;;;;;3.77;62.92;97020.63;5041150;28;20541;-70
2023/11/22 10:07:10;;;;;;;7.07;4.83;;;;;;;3.53;63.55;97032.03;5039142;28;20611;-72
2023/11/22 10:09:37;;;;;;;6.13;4.73;;;;;;;3.52;64.47;97027.75;5044467;28;20211;-68
2023/11/22 10:12:05;;;;;;;6.50;5.50;;;;;;;3.87;63.50;97026.63;5047201;28;20466;-69
2023/11/22 10:14:30;;;;;;;6.50;4.90;;;;;;;4.19;62.47;97025.50;5042538;28;20446;-71
2023/11/22 10:17:02;;;;;;;4.90;4.10;;;;;;;4.37;60.79;97017.56;5041327;28;20429;-70
2023/11/22 10:19:28;;;;;;;8.90;5.00;;;;;;;4.44;60.89;97015.72;5028773;28;20183;-70
2023/11/22 10:22:08;;;;;;;6.00;4.77;;;;;;;4.50;60.43;97012.25;5034913;28;20438;-69
2023/11/22 10:24:35;;;;;;;5.87;5.10;;;;;;;4.57;60.06;97006.94;5041101;28;20521;-70
2023/11/22 10:27:03;;;;;;;6.20;4.80;;;;;;;4.37;60.44;97012.38;5036933;28;20436;-69
2023/11/22 10:29:29;;;;;;;4.40;3.73;;;;;;;4.49;60.68;97010.50;5043543;28;20500;-69
2023/11/22 10:31:55;;;;;;;7.80;4.87;;;;;;;4.57;60.29;97014.75;5043986;28;20466;-72
2023/11/22 10:34:25;;;;;;;6.23;4.83;;;;;;;3.95;62.46;97030.03;5049733;28;20222;-69
2023/11/22 10:36:50;;;;;;;8.43;4.30;;;;;;;4.13;61.26;97031.59;5045012;28;20528;-72
2023/11/22 10:39:22;;;;;;;18.83;6.40;;;;;;;4.55;60.63;97026.03;5033082;28;20536;-71
2023/11/22 10:41:50;;;;;;;6.60;4.87;;;;;;;4.71;59.86;97027.59;5034850;28;20253;-71
2023/11/22 10:44:16;;;;;;;6.77;4.30;;;;;;;4.63;59.51;97022.50;5039733;28;20869;-71
2023/11/22 10:46:41;;;;;;;4.93;4.30;;;;;;;4.74;59.43;97035.38;5032023;28;21086;-71
2023/11/22 10:49:07;;;;;;;5.30;4.60;;;;;;;4.23;61.17;97040.22;5032930;28;20470;-72
2023/11/22 10:51:33;;;;;;;8.83;4.70;;;;;;;4.36;61.00;97041.81;5038597;28;20236;-72
2023/11/22 10:54:03;;;;;;;5.80;4.70;;;;;;;4.21;61.58;97047.16;5038540;28;20202;-72
2023/11/22 10:56:37;;;;;;;6.03;4.53;;;;;;;3.68;62.58;97045.78;5035039;28;20429;-71
2023/11/22 10:59:08;;;;;;;6.30;5.00;;;;;;;3.52;63.69;97055.41;5033262;28;20444;-71
2023/11/22 11:01:34;;;;;;;6.00;5.40;;;;;;;3.81;63.79;97047.44;5032712;28;20511;-72
2023/11/22 11:04:10;;;;;;;5.87;4.97;;;;;;;4.15;62.49;97050.63;5037131;28;20941;-73
2023/11/22 11:06:36;;;;;;;5.37;4.87;;;;;;;3.88;62.82;97059.50;5039136;28;20436;-72
2023/11/22 11:09:06;;;;;;;5.87;5.27;;;;;;;3.71;63.16;97066.53;5036824;28;20472;-72
2023/11/22 11:11:33;;;;;;;7.23;4.70;;;;;;;3.63;63.85;97068.31;5037265;28;20548;-73
2023/11/22 11:14:01;;;;;;;5.33;4.57;;;;;;;3.68;62.90;97077.81;5037208;28;21035;-71
2023/11/22 11:16:31;;;;;;;5.83;4.70;;;;;;;3.87;62.32;97070.75;5040656;28;20763;-71
2023/11/22 11:18:57;;;;;;;6.30;4.83;;;;;;;4.16;61.12;97059.31;5032590;28;20422;-73
2023/11/22 11:21:25;;;;;;;5.33;4.83;;;;;;;4.42;60.25;97062.53;5033605;28;20441;-69
2023/11/22 11:23:54;;;;;;;5.23;4.13;;;;;;;4.62;59.34;97061.50;5034971;28;20556;-72
2023/11/22 11:26:21;;;;;;;6.83;5.07;;;;;;;4.67;59.53;97057.09;5031503;28;20800;-71
2023/11/22 11:28:48;;;;;;;8.63;4.83;;;;;;;5.04;61.96;97056.72;5030031;28;21075;-70
2023/11/22 11:31:15;;;;;;;8.57;4.90;;;;;;;4.88;58.79;97067.28;5038076;28;20567;-70
2023/11/22 11:33:51;;;;;;;14.90;6.27;;;;;;;4.70;58.86;97051.91;5040655;28;20449;-70
2023/11/22 11:36:29;;;;;;;7.17;5.07;;;;;;;4.39;60.25;97052.19;5038065;28;21235;-73
2023/11/22 11:39:03;;;;;;;9.30;5.10;;;;;;;4.64;60.32;97054.53;5036841;28;20426;-70